sensor_id;sensor_type;location;lat;lon;timestamp;pressure;altitude;pressure_sealevel;temperature;humidity
67397;BME280;57728;50.448;18.824;2023-04-12T00:00:53;97356.69;;;7.06;74.25
67397;BME280;57728;50.448;18.824;2023-04-12T00:02:55;97361.28;;;7.05;74.39
67397;BME280;57728;50.448;18.824;2023-04-12T00:04:59;97364.19;;;7.04;74.18
67397;BME280;57728;50.448;18.824;2023-04-12T00:07:04;97333.59;;;6.85;74.26
67397;BME280;57728;50.448;18.824;2023-04-12T00:09:06;97336.53;;;6.83;74.20
67397;BME280;57728;50.448;18.824;2023-04-12T00:11:09;97330.91;;;6.85;74.37
67397;BME280;57728;50.448;18.824;2023-04-12T00:13:11;97363.59;;;7.02;74.18
67397;BME280;57728;50.448;18.824;2023-04-12T00:15:13;97342.09;;;6.88;74.42
67397;BME280;57728;50.448;18.824;2023-04-12T00:17:15;97303.38;;;6.69;74.12
67397;BME280;57728;50.448;18.824;2023-04-12T00:19:17;97361.47;;;7.04;74.32
67397;BME280;57728;50.448;18.824;2023-04-12T00:21:18;97356.31;;;7.02;74.28
67397;BME280;57728;50.448;18.824;2023-04-12T00:23:19;97314.41;;;6.68;74.15
67397;BME280;57728;50.448;18.824;2023-04-12T00:25:22;97280.34;;;6.42;74.26
67397;BME280;57728;50.448;18.824;2023-04-12T00:27:23;97363.16;;;7.05;74.40
67397;BME280;57728;50.448;18.824;2023-04-12T00:29:25;97315.19;;;6.75;73.99
67397;BME280;57728;50.448;18.824;2023-04-12T00:31:28;97269.91;;;6.45;73.85
67397;BME280;57728;50.448;18.824;2023-04-12T00:33:29;97363.00;;;7.00;74.01
67397;BME280;57728;50.448;18.824;2023-04-12T00:35:33;97302.84;;;6.61;74.23
67397;BME280;57728;50.448;18.824;2023-04-12T00:37:35;97330.06;;;6.84;74.07
67397;BME280;57728;50.448;18.824;2023-04-12T00:39:36;97354.44;;;7.03;73.99
67397;BME280;57728;50.448;18.824;2023-04-12T00:41:37;97290.13;;;6.61;73.92
67397;BME280;57728;50.448;18.824;2023-04-12T00:43:40;97358.19;;;7.02;73.84
67397;BME280;57728;50.448;18.824;2023-04-12T00:45:42;97330.06;;;6.84;74.00
67397;BME280;57728;50.448;18.824;2023-04-12T00:47:44;97354.22;;;7.04;73.74
67397;BME280;57728;50.448;18.824;2023-04-12T00:49:46;97299.16;;;6.74;73.77
67397;BME280;57728;50.448;18.824;2023-04-12T00:51:48;97343.00;;;7.01;73.78
67397;BME280;57728;50.448;18.824;2023-04-12T00:53:53;97337.00;;;6.99;73.79
67397;BME280;57728;50.448;18.824;2023-04-12T00:56:00;97345.56;;;6.96;73.87
67397;BME280;57728;50.448;18.824;2023-04-12T00:58:03;97274.88;;;6.48;73.85
67397;BME280;57728;50.448;18.824;2023-04-12T01:00:08;97343.09;;;6.94;73.50
67397;BME280;57728;50.448;18.824;2023-04-12T01:02:13;97344.38;;;6.92;73.73
67397;BME280;57728;50.448;18.824;2023-04-12T01:04:15;97338.09;;;6.91;73.77
67397;BME280;57728;50.448;18.824;2023-04-12T01:11:55;97347.66;;;6.94;73.50
67397;BME280;57728;50.448;18.824;2023-04-12T01:14:42;97334.75;;;6.96;73.56
67397;BME280;57728;50.448;18.824;2023-04-12T01:16:59;97174.34;;;5.89;73.41
67397;BME280;57728;50.448;18.824;2023-04-12T01:19:45;97349.31;;;6.95;73.58
67397;BME280;57728;50.448;18.824;2023-04-12T01:22:01;97350.59;;;6.92;73.34
67397;BME280;57728;50.448;18.824;2023-04-12T01:24:25;97350.81;;;6.91;73.35
67397;BME280;57728;50.448;18.824;2023-04-12T01:26:46;97282.81;;;6.43;73.41
67397;BME280;57728;50.448;18.824;2023-04-12T01:28:52;97318.34;;;6.72;73.49
67397;BME280;57728;50.448;18.824;2023-04-12T01:30:55;97309.22;;;6.66;73.38
67397;BME280;57728;50.448;18.824;2023-04-12T01:32:59;97348.94;;;6.91;73.36
67397;BME280;57728;50.448;18.824;2023-04-12T01:35:07;97160.03;;;5.63;73.12
67397;BME280;57728;50.448;18.824;2023-04-12T01:37:11;97344.41;;;6.85;73.37
67397;BME280;57728;50.448;18.824;2023-04-12T01:39:13;97316.31;;;6.67;73.20
67397;BME280;57728;50.448;18.824;2023-04-12T01:41:17;97345.47;;;6.84;73.30
67397;BME280;57728;50.448;18.824;2023-04-12T01:43:18;97337.34;;;6.84;73.29
67397;BME280;57728;50.448;18.824;2023-04-12T01:45:20;97342.75;;;6.84;73.25
67397;BME280;57728;50.448;18.824;2023-04-12T01:47:22;97280.06;;;6.50;73.07
67397;BME280;57728;50.448;18.824;2023-04-12T01:49:35;97337.81;;;6.81;72.96
67397;BME280;57728;50.448;18.824;2023-04-12T01:51:54;97332.84;;;6.78;73.14
67397;BME280;57728;50.448;18.824;2023-04-12T01:54:10;97330.13;;;6.78;73.03
67397;BME280;57728;50.448;18.824;2023-04-12T01:56:19;97297.44;;;6.61;73.11
67397;BME280;57728;50.448;18.824;2023-04-12T01:58:24;97328.88;;;6.80;72.97
67397;BME280;57728;50.448;18.824;2023-04-12T02:00:29;97283.50;;;6.57;72.74
67397;BME280;57728;50.448;18.824;2023-04-12T02:02:34;97326.28;;;6.85;72.87
67397;BME280;57728;50.448;18.824;2023-04-12T02:04:37;97319.84;;;6.86;72.55
67397;BME280;57728;50.448;18.824;2023-04-12T02:06:41;97242.72;;;6.40;72.50
67397;BME280;57728;50.448;18.824;2023-04-12T02:08:43;97289.53;;;6.59;72.72
67397;BME280;57728;50.448;18.824;2023-04-12T02:10:45;97328.41;;;6.83;72.69
67397;BME280;57728;50.448;18.824;2023-04-12T02:12:51;97306.66;;;6.71;72.64
67397;BME280;57728;50.448;18.824;2023-04-12T02:14:54;97322.84;;;6.78;72.61
67397;BME280;57728;50.448;18.824;2023-04-12T02:16:57;97264.56;;;6.39;72.50
67397;BME280;57728;50.448;18.824;2023-04-12T02:19:00;97320.75;;;6.80;72.52
67397;BME280;57728;50.448;18.824;2023-04-12T02:21:01;97321.56;;;6.81;72.67
67397;BME280;57728;50.448;18.824;2023-04-12T02:23:03;97278.78;;;6.52;72.33
67397;BME280;57728;50.448;18.824;2023-04-12T02:25:05;97329.47;;;6.82;72.37
67397;BME280;57728;50.448;18.824;2023-04-12T02:27:07;97144.22;;;5.67;72.07
67397;BME280;57728;50.448;18.824;2023-04-12T02:29:09;97333.66;;;6.78;72.29
67397;BME280;57728;50.448;18.824;2023-04-12T02:31:12;97290.63;;;6.51;71.73
67397;BME280;57728;50.448;18.824;2023-04-12T02:33:15;97230.50;;;6.12;71.83
67397;BME280;57728;50.448;18.824;2023-04-12T02:35:17;97320.50;;;6.63;71.88
67397;BME280;57728;50.448;18.824;2023-04-12T02:37:25;97324.47;;;6.61;71.92
67397;BME280;57728;50.448;18.824;2023-04-12T02:39:28;97276.88;;;6.34;72.12
67397;BME280;57728;50.448;18.824;2023-04-12T02:41:32;97267.41;;;6.25;72.09
67397;BME280;57728;50.448;18.824;2023-04-12T02:43:34;97313.13;;;6.52;71.98
67397;BME280;57728;50.448;18.824;2023-04-12T02:45:40;97319.78;;;6.49;72.10
67397;BME280;57728;50.448;18.824;2023-04-12T02:47:43;97323.53;;;6.48;72.19
67397;BME280;57728;50.448;18.824;2023-04-12T02:49:46;97288.84;;;6.20;72.11
67397;BME280;57728;50.448;18.824;2023-04-12T02:51:49;97316.56;;;6.41;72.12
67397;BME280;57728;50.448;18.824;2023-04-12T02:53:53;97232.34;;;5.86;72.10
67397;BME280;57728;50.448;18.824;2023-04-12T02:55:59;97307.56;;;6.22;72.11
67397;BME280;57728;50.448;18.824;2023-04-12T02:58:02;97293.03;;;6.16;72.29
67397;BME280;57728;50.448;18.824;2023-04-12T03:00:04;97320.34;;;6.33;72.30
67397;BME280;57728;50.448;18.824;2023-04-12T03:02:16;97315.16;;;6.31;72.37
67397;BME280;57728;50.448;18.824;2023-04-12T03:04:17;97319.97;;;6.29;72.38
67397;BME280;57728;50.448;18.824;2023-04-12T03:06:26;97308.81;;;6.19;72.43
67397;BME280;57728;50.448;18.824;2023-04-12T03:08:29;97300.38;;;6.09;72.54
67397;BME280;57728;50.448;18.824;2023-04-12T03:10:32;97326.25;;;6.23;72.41
67397;BME280;57728;50.448;18.824;2023-04-12T03:12:37;97339.16;;;6.21;72.36
67397;BME280;57728;50.448;18.824;2023-04-12T03:14:55;97336.69;;;6.19;72.38
67397;BME280;57728;50.448;18.824;2023-04-12T03:16:59;97264.47;;;5.69;72.39
67397;BME280;57728;50.448;18.824;2023-04-12T03:19:00;97326.31;;;6.16;72.69
67397;BME280;57728;50.448;18.824;2023-04-12T03:21:04;97315.78;;;6.08;72.58
67397;BME280;57728;50.448;18.824;2023-04-12T03:23:05;97335.03;;;6.18;72.64
67397;BME280;57728;50.448;18.824;2023-04-12T03:25:10;97327.50;;;6.20;72.34
67397;BME280;57728;50.448;18.824;2023-04-12T03:27:18;97326.47;;;6.22;72.36
67397;BME280;57728;50.448;18.824;2023-04-12T03:29:19;97326.69;;;6.20;72.18
67397;BME280;57728;50.448;18.824;2023-04-12T03:31:23;97323.16;;;6.19;72.19
67397;BME280;57728;50.448;18.824;2023-04-12T03:33:26;97324.44;;;6.17;72.05
67397;BME280;57728;50.448;18.824;2023-04-12T03:35:34;97315.50;;;6.16;72.15
67397;BME280;57728;50.448;18.824;2023-04-12T03:37:40;97318.22;;;6.16;72.12
67397;BME280;57728;50.448;18.824;2023-04-12T03:39:45;97248.88;;;5.72;72.13
67397;BME280;57728;50.448;18.824;2023-04-12T03:41:51;97254.84;;;5.80;72.02
67397;BME280;57728;50.448;18.824;2023-04-12T03:43:56;97309.31;;;6.09;71.97
67397;BME280;57728;50.448;18.824;2023-04-12T03:45:58;97325.25;;;6.17;71.96
67397;BME280;57728;50.448;18.824;2023-04-12T03:48:00;97306.00;;;6.07;72.14
67397;BME280;57728;50.448;18.824;2023-04-12T03:50:05;97322.09;;;6.20;71.96
67397;BME280;57728;50.448;18.824;2023-04-12T03:52:09;97267.03;;;5.90;72.02
67397;BME280;57728;50.448;18.824;2023-04-12T03:54:11;97320.47;;;6.19;71.78
67397;BME280;57728;50.448;18.824;2023-04-12T03:56:24;97320.91;;;6.16;71.81
67397;BME280;57728;50.448;18.824;2023-04-12T03:58:29;97325.91;;;6.13;71.96
67397;BME280;57728;50.448;18.824;2023-04-12T04:00:33;97258.00;;;5.77;72.05
67397;BME280;57728;50.448;18.824;2023-04-12T04:02:41;97188.50;;;5.34;71.88
67397;BME280;57728;50.448;18.824;2023-04-12T04:04:44;97276.97;;;5.96;71.90
67397;BME280;57728;50.448;18.824;2023-04-12T04:06:48;97281.50;;;6.02;71.93
67397;BME280;57728;50.448;18.824;2023-04-12T04:08:50;97308.81;;;6.19;71.79
67397;BME280;57728;50.448;18.824;2023-04-12T04:10:52;97248.41;;;5.81;71.69
67397;BME280;57728;50.448;18.824;2023-04-12T04:12:58;97280.47;;;6.03;71.78
67397;BME280;57728;50.448;18.824;2023-04-12T04:14:59;97300.78;;;6.12;71.79
67397;BME280;57728;50.448;18.824;2023-04-12T04:17:06;97270.94;;;5.94;71.99
67397;BME280;57728;50.448;18.824;2023-04-12T04:19:09;97225.25;;;5.67;71.90
67397;BME280;57728;50.448;18.824;2023-04-12T04:21:10;97294.59;;;6.05;72.23
67397;BME280;57728;50.448;18.824;2023-04-12T04:23:13;97071.28;;;4.66;72.02
67397;BME280;57728;50.448;18.824;2023-04-12T04:25:15;97232.28;;;5.68;72.16
67397;BME280;57728;50.448;18.824;2023-04-12T04:27:20;97268.09;;;5.89;72.25
67397;BME280;57728;50.448;18.824;2023-04-12T04:29:25;97230.44;;;5.68;72.19
67397;BME280;57728;50.448;18.824;2023-04-12T04:31:30;97296.41;;;6.11;72.22
67397;BME280;57728;50.448;18.824;2023-04-12T04:33:35;97291.81;;;6.12;72.27
67397;BME280;57728;50.448;18.824;2023-04-12T04:35:38;97221.69;;;5.66;72.18
67397;BME280;57728;50.448;18.824;2023-04-12T04:37:55;97190.44;;;5.52;72.17
67397;BME280;57728;50.448;18.824;2023-04-12T04:39:56;97269.22;;;6.06;72.05
67397;BME280;57728;50.448;18.824;2023-04-12T04:41:59;97302.53;;;6.25;71.93
67397;BME280;57728;50.448;18.824;2023-04-12T04:44:14;97302.53;;;6.25;72.11
67397;BME280;57728;50.448;18.824;2023-04-12T04:46:41;97249.19;;;5.89;72.18
67397;BME280;57728;50.448;18.824;2023-04-12T04:48:43;97193.56;;;5.56;72.28
67397;BME280;57728;50.448;18.824;2023-04-12T04:50:46;97220.00;;;5.72;72.18
67397;BME280;57728;50.448;18.824;2023-04-12T04:52:48;97284.13;;;6.15;72.45
67397;BME280;57728;50.448;18.824;2023-04-12T04:54:54;97311.78;;;6.36;72.17
67397;BME280;57728;50.448;18.824;2023-04-12T04:56:59;97290.88;;;6.25;72.22
67397;BME280;57728;50.448;18.824;2023-04-12T04:59:02;97325.69;;;6.40;71.89
67397;BME280;57728;50.448;18.824;2023-04-12T05:01:05;97334.03;;;6.38;71.98
67397;BME280;57728;50.448;18.824;2023-04-12T05:03:07;97270.88;;;6.07;72.21
67397;BME280;57728;50.448;18.824;2023-04-12T05:05:11;97169.75;;;5.46;72.09
67397;BME280;57728;50.448;18.824;2023-04-12T05:07:14;97306.69;;;6.28;71.97
67397;BME280;57728;50.448;18.824;2023-04-12T05:09:19;97327.69;;;6.51;72.07
67397;BME280;57728;50.448;18.824;2023-04-12T05:11:28;97322.06;;;6.52;71.95
67397;BME280;57728;50.448;18.824;2023-04-12T05:13:30;97297.84;;;6.39;71.80
67397;BME280;57728;50.448;18.824;2023-04-12T05:15:31;97330.56;;;6.56;71.70
67397;BME280;57728;50.448;18.824;2023-04-12T05:17:33;97307.38;;;6.42;71.71
67397;BME280;57728;50.448;18.824;2023-04-12T05:19:36;97250.75;;;6.03;71.84
67397;BME280;57728;50.448;18.824;2023-04-12T05:21:37;97288.94;;;6.32;71.80
67397;BME280;57728;50.448;18.824;2023-04-12T05:23:44;97337.31;;;6.65;71.80
67397;BME280;57728;50.448;18.824;2023-04-12T05:25:48;97336.88;;;6.68;71.60
67397;BME280;57728;50.448;18.824;2023-04-12T05:27:51;97345.38;;;6.72;71.40
67397;BME280;57728;50.448;18.824;2023-04-12T05:29:53;97327.50;;;6.71;71.54
67397;BME280;57728;50.448;18.824;2023-04-12T05:31:57;97292.13;;;6.47;71.42
67397;BME280;57728;50.448;18.824;2023-04-12T05:34:00;97132.44;;;5.61;71.17
67397;BME280;57728;50.448;18.824;2023-04-12T05:36:06;97324.16;;;6.94;70.96
67397;BME280;57728;50.448;18.824;2023-04-12T05:38:09;97284.66;;;6.68;70.74
67397;BME280;57728;50.448;18.824;2023-04-12T05:40:10;97339.53;;;6.94;70.62
67397;BME280;57728;50.448;18.824;2023-04-12T05:42:12;97305.56;;;6.79;70.72
67397;BME280;57728;50.448;18.824;2023-04-12T05:44:14;97151.94;;;5.89;70.61
67397;BME280;57728;50.448;18.824;2023-04-12T05:46:15;97329.47;;;7.01;70.77
67397;BME280;57728;50.448;18.824;2023-04-12T05:48:20;97270.69;;;6.71;70.35
67397;BME280;57728;50.448;18.824;2023-04-12T05:50:22;97325.94;;;7.00;70.37
67397;BME280;57728;50.448;18.824;2023-04-12T05:52:24;97244.53;;;6.46;70.29
67397;BME280;57728;50.448;18.824;2023-04-12T05:54:25;97285.41;;;6.75;70.45
67397;BME280;57728;50.448;18.824;2023-04-12T05:56:29;97280.97;;;6.81;70.36
67397;BME280;57728;50.448;18.824;2023-04-12T05:58:30;97295.44;;;6.93;69.99
67397;BME280;57728;50.448;18.824;2023-04-12T06:00:34;97255.94;;;6.67;70.12
67397;BME280;57728;50.448;18.824;2023-04-12T06:02:36;97277.38;;;6.87;70.26
67397;BME280;57728;50.448;18.824;2023-04-12T06:04:39;97324.88;;;7.20;69.99
67397;BME280;57728;50.448;18.824;2023-04-12T06:06:42;97325.88;;;7.26;70.13
67397;BME280;57728;50.448;18.824;2023-04-12T06:08:45;97306.44;;;7.29;69.77
67397;BME280;57728;50.448;18.824;2023-04-12T06:10:46;97290.00;;;7.12;69.73
67397;BME280;57728;50.448;18.824;2023-04-12T06:12:48;97261.69;;;6.96;69.81
67397;BME280;57728;50.448;18.824;2023-04-12T06:14:50;97316.38;;;7.35;69.63
67397;BME280;57728;50.448;18.824;2023-04-12T06:16:52;97265.94;;;7.03;69.83
67397;BME280;57728;50.448;18.824;2023-04-12T06:18:53;97200.50;;;6.76;70.12
67397;BME280;57728;50.448;18.824;2023-04-12T06:20:56;97272.97;;;7.42;69.59
67397;BME280;57728;50.448;18.824;2023-04-12T06:22:57;97271.38;;;7.52;69.06
67397;BME280;57728;50.448;18.824;2023-04-12T06:24:59;97309.63;;;7.86;69.13
67397;BME280;57728;50.448;18.824;2023-04-12T06:27:01;97266.78;;;7.65;68.54
67397;BME280;57728;50.448;18.824;2023-04-12T06:29:02;97210.19;;;7.45;68.63
67397;BME280;57728;50.448;18.824;2023-04-12T06:31:04;97256.34;;;7.80;68.32
67397;BME280;57728;50.448;18.824;2023-04-12T06:33:11;97285.41;;;8.03;68.05
67397;BME280;57728;50.448;18.824;2023-04-12T06:35:12;97314.19;;;8.28;67.90
67397;BME280;57728;50.448;18.824;2023-04-12T06:37:13;97306.44;;;8.32;67.85
67397;BME280;57728;50.448;18.824;2023-04-12T06:39:16;97310.66;;;8.39;67.49
67397;BME280;57728;50.448;18.824;2023-04-12T06:41:17;97301.25;;;8.42;67.27
67397;BME280;57728;50.448;18.824;2023-04-12T06:43:19;97302.28;;;8.41;66.90
67397;BME280;57728;50.448;18.824;2023-04-12T06:45:23;97276.00;;;8.30;67.30
67397;BME280;57728;50.448;18.824;2023-04-12T06:47:24;97293.84;;;8.49;66.96
67397;BME280;57728;50.448;18.824;2023-04-12T06:49:25;97272.34;;;8.36;67.07
67397;BME280;57728;50.448;18.824;2023-04-12T06:51:27;97288.78;;;8.53;66.96
67397;BME280;57728;50.448;18.824;2023-04-12T06:53:29;97289.38;;;8.55;66.73
67397;BME280;57728;50.448;18.824;2023-04-12T06:55:30;97176.84;;;7.86;66.51
67397;BME280;57728;50.448;18.824;2023-04-12T06:57:32;97170.25;;;7.82;66.56
67397;BME280;57728;50.448;18.824;2023-04-12T06:59:33;97297.97;;;8.64;66.92
67397;BME280;57728;50.448;18.824;2023-04-12T07:01:35;97294.56;;;8.68;66.56
67397;BME280;57728;50.448;18.824;2023-04-12T07:03:37;97287.59;;;8.72;66.50
67397;BME280;57728;50.448;18.824;2023-04-12T07:05:38;97227.56;;;8.45;66.15
67397;BME280;57728;50.448;18.824;2023-04-12T07:07:40;97182.75;;;8.31;65.99
67397;BME280;57728;50.448;18.824;2023-04-12T07:09:45;97290.84;;;9.10;65.43
67397;BME280;57728;50.448;18.824;2023-04-12T07:11:47;97288.44;;;9.25;65.76
67397;BME280;57728;50.448;18.824;2023-04-12T07:13:49;97267.78;;;9.24;65.17
67397;BME280;57728;50.448;18.824;2023-04-12T07:15:52;97296.84;;;9.53;65.01
67397;BME280;57728;50.448;18.824;2023-04-12T07:17:54;97266.91;;;9.36;64.11
67397;BME280;57728;50.448;18.824;2023-04-12T07:19:55;97263.72;;;9.39;64.08
67397;BME280;57728;50.448;18.824;2023-04-12T07:21:57;97268.97;;;9.57;63.97
67397;BME280;57728;50.448;18.824;2023-04-12T07:23:59;97241.13;;;9.50;63.44
67397;BME280;57728;50.448;18.824;2023-04-12T07:26:01;97210.22;;;9.39;63.42
67397;BME280;57728;50.448;18.824;2023-04-12T07:28:04;97233.00;;;9.67;63.45
67397;BME280;57728;50.448;18.824;2023-04-12T07:30:06;97301.50;;;10.15;62.77
67397;BME280;57728;50.448;18.824;2023-04-12T07:32:09;97276.56;;;10.18;62.88
67397;BME280;57728;50.448;18.824;2023-04-12T07:34:11;97300.63;;;10.43;62.44
67397;BME280;57728;50.448;18.824;2023-04-12T07:36:13;97271.53;;;10.27;61.84
67397;BME280;57728;50.448;18.824;2023-04-12T07:38:16;97294.44;;;10.31;61.28
67397;BME280;57728;50.448;18.824;2023-04-12T07:40:18;97185.53;;;9.41;61.24
67397;BME280;57728;50.448;18.824;2023-04-12T07:42:20;97297.47;;;10.01;60.80
67397;BME280;57728;50.448;18.824;2023-04-12T07:44:21;97201.72;;;9.36;61.57
67397;BME280;57728;50.448;18.824;2023-04-12T07:46:23;97236.03;;;9.71;61.75
67397;BME280;57728;50.448;18.824;2023-04-12T07:48:25;97290.88;;;10.13;61.76
67397;BME280;57728;50.448;18.824;2023-04-12T07:50:26;97272.84;;;10.07;61.35
67397;BME280;57728;50.448;18.824;2023-04-12T07:52:28;97273.75;;;10.13;61.05
67397;BME280;57728;50.448;18.824;2023-04-12T07:54:29;97232.59;;;10.09;61.16
67397;BME280;57728;50.448;18.824;2023-04-12T07:56:34;97283.16;;;10.56;60.95
67397;BME280;57728;50.448;18.824;2023-04-12T07:58:36;97269.72;;;10.66;61.32
67397;BME280;57728;50.448;18.824;2023-04-12T08:00:38;97281.19;;;10.91;60.44
67397;BME280;57728;50.448;18.824;2023-04-12T08:02:39;97218.31;;;10.53;59.58
67397;BME280;57728;50.448;18.824;2023-04-12T08:04:41;97269.84;;;10.77;59.47
67397;BME280;57728;50.448;18.824;2023-04-12T08:06:44;97264.97;;;10.79;59.78
67397;BME280;57728;50.448;18.824;2023-04-12T08:08:45;97236.03;;;10.73;60.22
67397;BME280;57728;50.448;18.824;2023-04-12T08:10:48;97263.16;;;11.07;60.29
67397;BME280;57728;50.448;18.824;2023-04-12T08:12:51;97223.94;;;11.08;60.21
67397;BME280;57728;50.448;18.824;2023-04-12T08:14:52;97275.97;;;11.78;59.48
67397;BME280;57728;50.448;18.824;2023-04-12T08:16:54;97274.13;;;12.11;59.43
67397;BME280;57728;50.448;18.824;2023-04-12T08:18:55;97280.13;;;12.45;58.22
67397;BME280;57728;50.448;18.824;2023-04-12T08:20:57;97282.22;;;12.70;57.42
67397;BME280;57728;50.448;18.824;2023-04-12T08:22:59;97276.88;;;12.86;57.21
67397;BME280;57728;50.448;18.824;2023-04-12T08:25:00;97273.06;;;12.92;56.62
67397;BME280;57728;50.448;18.824;2023-04-12T08:27:01;97252.59;;;12.89;56.63
67397;BME280;57728;50.448;18.824;2023-04-12T08:29:04;97265.72;;;12.93;55.21
67397;BME280;57728;50.448;18.824;2023-04-12T08:31:05;97227.22;;;12.51;54.97
67397;BME280;57728;50.448;18.824;2023-04-12T08:33:07;97272.28;;;12.54;54.68
67397;BME280;57728;50.448;18.824;2023-04-12T08:35:09;97242.53;;;12.15;54.76
67397;BME280;57728;50.448;18.824;2023-04-12T08:37:11;97272.28;;;12.16;54.97
67397;BME280;57728;50.448;18.824;2023-04-12T08:39:12;97243.47;;;11.98;55.72
67397;BME280;57728;50.448;18.824;2023-04-12T08:41:14;97248.44;;;12.07;55.23
67397;BME280;57728;50.448;18.824;2023-04-12T08:43:17;97252.84;;;12.13;55.17
67397;BME280;57728;50.448;18.824;2023-04-12T08:45:20;97259.91;;;12.41;55.06
67397;BME280;57728;50.448;18.824;2023-04-12T08:47:24;97170.97;;;12.08;54.28
67397;BME280;57728;50.448;18.824;2023-04-12T08:49:25;97264.19;;;12.69;54.16
67397;BME280;57728;50.448;18.824;2023-04-12T08:51:27;97095.47;;;11.81;54.25
67397;BME280;57728;50.448;18.824;2023-04-12T08:53:29;97254.84;;;13.08;53.41
67397;BME280;57728;50.448;18.824;2023-04-12T08:55:31;97255.53;;;13.36;52.85
67397;BME280;57728;50.448;18.824;2023-04-12T08:57:35;97224.09;;;13.38;51.77
67397;BME280;57728;50.448;18.824;2023-04-12T08:59:42;97230.34;;;13.29;51.18
67397;BME280;57728;50.448;18.824;2023-04-12T09:01:45;97240.72;;;13.32;51.50
67397;BME280;57728;50.448;18.824;2023-04-12T09:03:47;97198.69;;;13.43;51.44
67397;BME280;57728;50.448;18.824;2023-04-12T09:05:49;97226.41;;;13.88;50.31
67397;BME280;57728;50.448;18.824;2023-04-12T09:07:50;97252.16;;;14.23;50.22
67397;BME280;57728;50.448;18.824;2023-04-12T09:09:51;97222.53;;;14.56;49.56
67397;BME280;57728;50.448;18.824;2023-04-12T09:12:06;97236.22;;;14.82;48.75
67397;BME280;57728;50.448;18.824;2023-04-12T09:14:22;97244.47;;;14.76;47.55
67397;BME280;57728;50.448;18.824;2023-04-12T09:16:37;97248.56;;;14.43;47.90
67397;BME280;57728;50.448;18.824;2023-04-12T09:18:59;97243.38;;;14.10;48.48
67397;BME280;57728;50.448;18.824;2023-04-12T09:21:09;97224.75;;;14.38;49.26
67397;BME280;57728;50.448;18.824;2023-04-12T09:23:18;97229.97;;;15.41;48.41
67397;BME280;57728;50.448;18.824;2023-04-12T09:25:37;97220.97;;;16.55;47.21
67397;BME280;57728;50.448;18.824;2023-04-12T09:30:06;97202.28;;;18.25;43.17
67397;BME280;57728;50.448;18.824;2023-04-12T09:32:09;97177.13;;;18.59;42.69
67397;BME280;57728;50.448;18.824;2023-04-12T09:34:10;97208.03;;;19.58;41.68
67397;BME280;57728;50.448;18.824;2023-04-12T09:36:11;97217.75;;;20.29;40.20
67397;BME280;57728;50.448;18.824;2023-04-12T09:38:18;97194.84;;;20.60;38.62
67397;BME280;57728;50.448;18.824;2023-04-12T09:40:23;97138.34;;;20.84;38.29
67397;BME280;57728;50.448;18.824;2023-04-12T09:42:25;97187.94;;;21.69;37.64
67397;BME280;57728;50.448;18.824;2023-04-12T09:44:27;97152.56;;;21.92;35.93
67397;BME280;57728;50.448;18.824;2023-04-12T09:46:32;97196.06;;;22.18;34.50
67397;BME280;57728;50.448;18.824;2023-04-12T09:48:33;97126.81;;;21.66;33.98
67397;BME280;57728;50.448;18.824;2023-04-12T09:50:36;97162.97;;;21.95;33.67
67397;BME280;57728;50.448;18.824;2023-04-12T09:52:38;97191.69;;;21.99;32.54
67397;BME280;57728;50.448;18.824;2023-04-12T09:54:43;97189.88;;;21.95;33.50
67397;BME280;57728;50.448;18.824;2023-04-12T09:56:47;97188.25;;;22.38;33.08
67397;BME280;57728;50.448;18.824;2023-04-12T09:58:51;97196.25;;;22.95;32.71
67397;BME280;57728;50.448;18.824;2023-04-12T10:00:56;97178.53;;;23.09;30.93
67397;BME280;57728;50.448;18.824;2023-04-12T10:03:02;97163.06;;;23.08;30.60
67397;BME280;57728;50.448;18.824;2023-04-12T10:05:05;97138.00;;;23.25;29.55
67397;BME280;57728;50.448;18.824;2023-04-12T10:07:07;97165.94;;;23.20;28.93
67397;BME280;57728;50.448;18.824;2023-04-12T10:09:09;97173.97;;;22.74;29.53
67397;BME280;57728;50.448;18.824;2023-04-12T10:11:13;97165.25;;;22.28;29.38
67397;BME280;57728;50.448;18.824;2023-04-12T10:13:14;97161.88;;;21.79;29.29
67397;BME280;57728;50.448;18.824;2023-04-12T10:15:19;97118.66;;;20.85;29.63
67397;BME280;57728;50.448;18.824;2023-04-12T10:17:25;97140.00;;;20.53;30.39
67397;BME280;57728;50.448;18.824;2023-04-12T10:19:31;97177.97;;;20.39;30.44
67397;BME280;57728;50.448;18.824;2023-04-12T10:21:34;97147.28;;;19.58;31.09
67397;BME280;57728;50.448;18.824;2023-04-12T10:23:36;97173.94;;;19.13;32.16
67397;BME280;57728;50.448;18.824;2023-04-12T10:25:38;97159.78;;;18.45;33.07
67397;BME280;57728;50.448;18.824;2023-04-12T10:27:44;97125.63;;;17.61;33.57
67397;BME280;57728;50.448;18.824;2023-04-12T10:29:46;97180.22;;;17.53;34.21
67397;BME280;57728;50.448;18.824;2023-04-12T10:31:48;97174.31;;;16.98;35.17
67397;BME280;57728;50.448;18.824;2023-04-12T10:33:53;97156.41;;;16.52;35.32
67397;BME280;57728;50.448;18.824;2023-04-12T10:36:00;97150.56;;;16.05;35.77
67397;BME280;57728;50.448;18.824;2023-04-12T10:38:05;97171.03;;;15.84;36.15
67397;BME280;57728;50.448;18.824;2023-04-12T10:40:15;97171.66;;;15.70;36.32
67397;BME280;57728;50.448;18.824;2023-04-12T10:44:24;97068.16;;;15.81;37.16
67397;BME280;57728;50.448;18.824;2023-04-12T10:48:49;97155.38;;;18.90;34.50
67397;BME280;57728;50.448;18.824;2023-04-12T10:51:17;97154.09;;;19.98;32.77
67397;BME280;57728;50.448;18.824;2023-04-12T10:53:25;97090.25;;;20.22;32.00
67397;BME280;57728;50.448;18.824;2023-04-12T10:55:27;97135.53;;;21.15;31.67
67397;BME280;57728;50.448;18.824;2023-04-12T10:57:41;97148.16;;;22.00;31.22
67397;BME280;57728;50.448;18.824;2023-04-12T10:59:53;97117.53;;;21.88;30.19
67397;BME280;57728;50.448;18.824;2023-04-12T11:02:10;97139.13;;;22.29;29.48
67397;BME280;57728;50.448;18.824;2023-04-12T11:04:18;97115.53;;;22.79;29.37
67397;BME280;57728;50.448;18.824;2023-04-12T11:11:33;97026.22;;;23.07;26.78
67397;BME280;57728;50.448;18.824;2023-04-12T11:13:37;97094.72;;;23.24;26.15